sensor_id;sensor_type;location;lat;lon;timestamp;P1;durP1;ratioP1;P2;durP2;ratioP2
66139;SDS011;52945;51.908;8.364;2022-11-15T00:00:44;8.55;;;4.28;;
66139;SDS011;52945;51.908;8.364;2022-11-15T00:03:44;9.20;;;4.13;;
66139;SDS011;52945;51.908;8.364;2022-11-15T00:09:46;6.15;;;3.22;;
66139;SDS011;52945;51.908;8.364;2022-11-15T00:12:47;6.00;;;3.40;;
66139;SDS011;52945;51.908;8.364;2022-11-15T00:15:47;6.85;;;3.90;;
66139;SDS011;52945;51.908;8.364;2022-11-15T00:18:48;8.93;;;4.07;;
66139;SDS011;52945;51.908;8.364;2022-11-15T00:21:48;10.35;;;4.13;;
66139;SDS011;52945;51.908;8.364;2022-11-15T00:24:49;6.50;;;3.38;;
66139;SDS011;52945;51.908;8.364;2022-11-15T00:27:49;6.00;;;3.60;;
66139;SDS011;52945;51.908;8.364;2022-11-15T00:30:51;7.15;;;3.67;;
66139;SDS011;52945;51.908;8.364;2022-11-15T00:33:52;7.20;;;3.67;;
66139;SDS011;52945;51.908;8.364;2022-11-15T00:36:53;6.68;;;3.42;;
66139;SDS011;52945;51.908;8.364;2022-11-15T00:39:53;6.82;;;3.60;;
66139;SDS011;52945;51.908;8.364;2022-11-15T00:42:54;7.88;;;3.65;;
66139;SDS011;52945;51.908;8.364;2022-11-15T00:45:54;10.98;;;3.58;;
66139;SDS011;52945;51.908;8.364;2022-11-15T00:48:55;6.32;;;3.17;;
66139;SDS011;52945;51.908;8.364;2022-11-15T00:51:55;6.28;;;3.20;;
66139;SDS011;52945;51.908;8.364;2022-11-15T00:54:56;8.55;;;3.63;;
66139;SDS011;52945;51.908;8.364;2022-11-15T00:57:56;7.63;;;3.60;;
66139;SDS011;52945;51.908;8.364;2022-11-15T01:01:04;8.65;;;3.90;;
66139;SDS011;52945;51.908;8.364;2022-11-15T01:04:09;7.65;;;3.45;;
66139;SDS011;52945;51.908;8.364;2022-11-15T01:07:10;6.07;;;3.15;;
66139;SDS011;52945;51.908;8.364;2022-11-15T01:10:10;8.07;;;3.83;;
66139;SDS011;52945;51.908;8.364;2022-11-15T01:13:11;8.02;;;3.22;;
66139;SDS011;52945;51.908;8.364;2022-11-15T01:16:13;8.27;;;3.40;;
66139;SDS011;52945;51.908;8.364;2022-11-15T01:19:18;8.65;;;3.40;;
66139;SDS011;52945;51.908;8.364;2022-11-15T01:22:18;7.75;;;3.60;;
66139;SDS011;52945;51.908;8.364;2022-11-15T01:25:19;7.18;;;3.30;;
66139;SDS011;52945;51.908;8.364;2022-11-15T01:28:20;6.97;;;3.67;;
66139;SDS011;52945;51.908;8.364;2022-11-15T01:31:21;7.03;;;3.75;;
66139;SDS011;52945;51.908;8.364;2022-11-15T01:37:22;7.32;;;3.55;;
66139;SDS011;52945;51.908;8.364;2022-11-15T01:40:23;7.25;;;3.42;;
66139;SDS011;52945;51.908;8.364;2022-11-15T01:43:27;9.13;;;4.00;;
66139;SDS011;52945;51.908;8.364;2022-11-15T01:46:29;9.27;;;3.33;;
66139;SDS011;52945;51.908;8.364;2022-11-15T01:49:33;11.18;;;3.80;;
66139;SDS011;52945;51.908;8.364;2022-11-15T01:52:38;9.98;;;3.50;;
66139;SDS011;52945;51.908;8.364;2022-11-15T01:55:40;8.35;;;3.83;;
66139;SDS011;52945;51.908;8.364;2022-11-15T01:58:41;9.80;;;3.67;;
66139;SDS011;52945;51.908;8.364;2022-11-15T02:01:42;7.03;;;3.53;;
66139;SDS011;52945;51.908;8.364;2022-11-15T02:04:45;6.57;;;3.63;;
66139;SDS011;52945;51.908;8.364;2022-11-15T02:07:46;7.97;;;3.65;;
66139;SDS011;52945;51.908;8.364;2022-11-15T02:10:48;6.90;;;3.53;;
66139;SDS011;52945;51.908;8.364;2022-11-15T02:13:49;7.68;;;3.70;;
66139;SDS011;52945;51.908;8.364;2022-11-15T02:33:38;6.40;;;3.58;;
66139;SDS011;52945;51.908;8.364;2022-11-15T02:43:29;8.13;;;3.75;;
66139;SDS011;52945;51.908;8.364;2022-11-15T02:46:57;9.75;;;3.72;;
66139;SDS011;52945;51.908;8.364;2022-11-15T02:50:13;8.48;;;3.47;;
66139;SDS011;52945;51.908;8.364;2022-11-15T02:53:17;11.75;;;4.00;;
66139;SDS011;52945;51.908;8.364;2022-11-15T02:56:17;8.05;;;3.53;;
66139;SDS011;52945;51.908;8.364;2022-11-15T03:09:55;9.60;;;3.95;;
66139;SDS011;52945;51.908;8.364;2022-11-15T03:20:07;7.38;;;3.55;;
66139;SDS011;52945;51.908;8.364;2022-11-15T03:23:09;7.95;;;3.72;;
66139;SDS011;52945;51.908;8.364;2022-11-15T03:26:11;7.97;;;4.15;;
66139;SDS011;52945;51.908;8.364;2022-11-15T03:29:19;7.13;;;3.58;;
66139;SDS011;52945;51.908;8.364;2022-11-15T03:32:26;8.30;;;3.70;;
66139;SDS011;52945;51.908;8.364;2022-11-15T03:35:30;9.23;;;4.15;;
66139;SDS011;52945;51.908;8.364;2022-11-15T03:38:40;7.95;;;4.03;;
66139;SDS011;52945;51.908;8.364;2022-11-15T03:41:43;10.50;;;3.90;;
66139;SDS011;52945;51.908;8.364;2022-11-15T03:48:10;8.45;;;4.13;;
66139;SDS011;52945;51.908;8.364;2022-11-15T03:51:14;8.15;;;4.38;;
66139;SDS011;52945;51.908;8.364;2022-11-15T03:54:15;11.32;;;4.53;;
66139;SDS011;52945;51.908;8.364;2022-11-15T03:57:16;8.02;;;4.35;;
66139;SDS011;52945;51.908;8.364;2022-11-15T04:00:17;8.80;;;3.72;;
66139;SDS011;52945;51.908;8.364;2022-11-15T04:03:17;9.73;;;3.97;;
66139;SDS011;52945;51.908;8.364;2022-11-15T04:06:18;8.88;;;4.40;;
66139;SDS011;52945;51.908;8.364;2022-11-15T04:09:19;9.57;;;4.18;;
66139;SDS011;52945;51.908;8.364;2022-11-15T04:12:19;13.63;;;4.60;;
66139;SDS011;52945;51.908;8.364;2022-11-15T04:15:30;11.23;;;3.97;;
66139;SDS011;52945;51.908;8.364;2022-11-15T04:18:31;8.30;;;4.40;;
66139;SDS011;52945;51.908;8.364;2022-11-15T04:21:31;8.82;;;4.40;;
66139;SDS011;52945;51.908;8.364;2022-11-15T04:24:50;9.48;;;4.13;;
66139;SDS011;52945;51.908;8.364;2022-11-15T04:27:51;8.77;;;4.35;;
66139;SDS011;52945;51.908;8.364;2022-11-15T04:30:51;9.52;;;4.38;;
66139;SDS011;52945;51.908;8.364;2022-11-15T04:33:52;9.45;;;4.57;;
66139;SDS011;52945;51.908;8.364;2022-11-15T04:36:53;9.75;;;4.45;;
66139;SDS011;52945;51.908;8.364;2022-11-15T04:40:12;8.35;;;3.85;;
66139;SDS011;52945;51.908;8.364;2022-11-15T04:43:12;8.73;;;5.00;;
66139;SDS011;52945;51.908;8.364;2022-11-15T04:46:13;9.38;;;4.82;;
66139;SDS011;52945;51.908;8.364;2022-11-15T04:49:13;11.98;;;5.32;;
66139;SDS011;52945;51.908;8.364;2022-11-15T04:52:14;12.85;;;5.13;;
66139;SDS011;52945;51.908;8.364;2022-11-15T04:55:14;13.25;;;5.53;;
66139;SDS011;52945;51.908;8.364;2022-11-15T04:58:15;8.73;;;4.97;;
66139;SDS011;52945;51.908;8.364;2022-11-15T05:01:16;12.57;;;5.20;;
66139;SDS011;52945;51.908;8.364;2022-11-15T05:04:17;14.27;;;5.88;;
66139;SDS011;52945;51.908;8.364;2022-11-15T05:07:20;11.57;;;4.88;;
66139;SDS011;52945;51.908;8.364;2022-11-15T05:10:21;17.70;;;5.47;;
66139;SDS011;52945;51.908;8.364;2022-11-15T05:13:21;12.05;;;5.63;;
66139;SDS011;52945;51.908;8.364;2022-11-15T05:16:22;10.82;;;4.68;;
66139;SDS011;52945;51.908;8.364;2022-11-15T05:19:23;11.25;;;5.05;;
66139;SDS011;52945;51.908;8.364;2022-11-15T05:22:23;12.57;;;5.50;;
66139;SDS011;52945;51.908;8.364;2022-11-15T05:25:24;9.35;;;5.00;;
66139;SDS011;52945;51.908;8.364;2022-11-15T05:28:25;11.07;;;5.20;;
66139;SDS011;52945;51.908;8.364;2022-11-15T05:31:26;11.55;;;5.22;;
66139;SDS011;52945;51.908;8.364;2022-11-15T05:34:27;8.05;;;4.60;;
66139;SDS011;52945;51.908;8.364;2022-11-15T05:37:28;12.45;;;4.75;;
66139;SDS011;52945;51.908;8.364;2022-11-15T05:40:29;12.13;;;4.78;;
66139;SDS011;52945;51.908;8.364;2022-11-15T05:43:31;8.27;;;4.45;;
66139;SDS011;52945;51.908;8.364;2022-11-15T05:46:35;10.77;;;5.15;;
66139;SDS011;52945;51.908;8.364;2022-11-15T05:49:39;11.23;;;4.97;;
66139;SDS011;52945;51.908;8.364;2022-11-15T05:52:42;12.45;;;5.00;;
66139;SDS011;52945;51.908;8.364;2022-11-15T05:55:44;9.82;;;4.53;;
66139;SDS011;52945;51.908;8.364;2022-11-15T05:58:45;9.60;;;4.82;;
66139;SDS011;52945;51.908;8.364;2022-11-15T06:01:46;9.48;;;4.90;;
66139;SDS011;52945;51.908;8.364;2022-11-15T06:04:46;12.80;;;5.10;;
66139;SDS011;52945;51.908;8.364;2022-11-15T06:07:47;11.90;;;4.68;;
66139;SDS011;52945;51.908;8.364;2022-11-15T06:10:47;11.27;;;5.20;;
66139;SDS011;52945;51.908;8.364;2022-11-15T06:13:48;11.60;;;5.18;;
66139;SDS011;52945;51.908;8.364;2022-11-15T06:16:48;12.20;;;5.53;;
66139;SDS011;52945;51.908;8.364;2022-11-15T06:19:49;10.45;;;5.00;;
66139;SDS011;52945;51.908;8.364;2022-11-15T06:22:49;10.95;;;4.97;;
66139;SDS011;52945;51.908;8.364;2022-11-15T06:25:50;11.10;;;4.82;;
66139;SDS011;52945;51.908;8.364;2022-11-15T06:28:50;10.07;;;4.70;;
66139;SDS011;52945;51.908;8.364;2022-11-15T06:31:51;10.82;;;5.07;;
66139;SDS011;52945;51.908;8.364;2022-11-15T06:37:53;9.85;;;4.70;;
66139;SDS011;52945;51.908;8.364;2022-11-15T06:40:53;8.93;;;4.47;;
66139;SDS011;52945;51.908;8.364;2022-11-15T06:43:54;11.25;;;4.95;;
66139;SDS011;52945;51.908;8.364;2022-11-15T06:46:55;7.63;;;4.07;;
66139;SDS011;52945;51.908;8.364;2022-11-15T06:49:55;8.27;;;4.53;;
66139;SDS011;52945;51.908;8.364;2022-11-15T06:53:00;8.45;;;4.68;;
66139;SDS011;52945;51.908;8.364;2022-11-15T06:56:02;7.70;;;4.15;;
66139;SDS011;52945;51.908;8.364;2022-11-15T06:59:04;7.70;;;3.80;;
66139;SDS011;52945;51.908;8.364;2022-11-15T07:02:05;10.40;;;4.75;;
66139;SDS011;52945;51.908;8.364;2022-11-15T07:05:05;8.48;;;4.80;;
66139;SDS011;52945;51.908;8.364;2022-11-15T07:08:07;9.63;;;4.63;;
66139;SDS011;52945;51.908;8.364;2022-11-15T07:11:07;8.20;;;4.28;;
66139;SDS011;52945;51.908;8.364;2022-11-15T07:17:09;9.68;;;4.53;;
66139;SDS011;52945;51.908;8.364;2022-11-15T07:20:10;7.82;;;4.10;;
66139;SDS011;52945;51.908;8.364;2022-11-15T07:23:13;11.30;;;4.20;;
66139;SDS011;52945;51.908;8.364;2022-11-15T07:26:13;8.15;;;3.80;;
66139;SDS011;52945;51.908;8.364;2022-11-15T07:29:14;12.35;;;4.30;;
66139;SDS011;52945;51.908;8.364;2022-11-15T07:32:14;9.07;;;4.13;;
66139;SDS011;52945;51.908;8.364;2022-11-15T07:35:15;9.18;;;4.57;;
66139;SDS011;52945;51.908;8.364;2022-11-15T07:38:16;9.82;;;4.15;;
66139;SDS011;52945;51.908;8.364;2022-11-15T07:41:19;9.07;;;3.97;;
66139;SDS011;52945;51.908;8.364;2022-11-15T07:44:20;8.50;;;3.65;;
66139;SDS011;52945;51.908;8.364;2022-11-15T07:47:20;7.07;;;3.60;;
66139;SDS011;52945;51.908;8.364;2022-11-15T07:50:24;6.28;;;3.45;;
66139;SDS011;52945;51.908;8.364;2022-11-15T07:53:25;6.32;;;3.50;;
66139;SDS011;52945;51.908;8.364;2022-11-15T07:56:26;7.72;;;2.95;;
66139;SDS011;52945;51.908;8.364;2022-11-15T07:59:26;7.15;;;3.20;;
66139;SDS011;52945;51.908;8.364;2022-11-15T08:02:27;6.00;;;2.75;;
66139;SDS011;52945;51.908;8.364;2022-11-15T08:05:27;6.38;;;3.05;;
66139;SDS011;52945;51.908;8.364;2022-11-15T08:08:28;4.60;;;2.88;;
66139;SDS011;52945;51.908;8.364;2022-11-15T08:11:29;5.75;;;2.90;;
66139;SDS011;52945;51.908;8.364;2022-11-15T08:14:29;5.93;;;2.95;;
66139;SDS011;52945;51.908;8.364;2022-11-15T08:17:30;5.18;;;2.90;;
66139;SDS011;52945;51.908;8.364;2022-11-15T08:20:32;5.88;;;2.70;;
66139;SDS011;52945;51.908;8.364;2022-11-15T08:23:34;5.90;;;2.65;;
66139;SDS011;52945;51.908;8.364;2022-11-15T08:26:34;6.05;;;3.20;;
66139;SDS011;52945;51.908;8.364;2022-11-15T08:29:35;4.93;;;2.70;;
66139;SDS011;52945;51.908;8.364;2022-11-15T08:32:35;5.70;;;2.85;;
66139;SDS011;52945;51.908;8.364;2022-11-15T08:35:36;6.85;;;2.85;;
66139;SDS011;52945;51.908;8.364;2022-11-15T08:38:37;4.30;;;1.98;;
66139;SDS011;52945;51.908;8.364;2022-11-15T08:41:37;3.20;;;2.50;;
66139;SDS011;52945;51.908;8.364;2022-11-15T08:44:38;3.95;;;2.13;;
66139;SDS011;52945;51.908;8.364;2022-11-15T08:47:39;5.85;;;2.50;;
66139;SDS011;52945;51.908;8.364;2022-11-15T08:50:39;3.30;;;1.98;;
66139;SDS011;52945;51.908;8.364;2022-11-15T08:53:40;2.70;;;1.85;;
66139;SDS011;52945;51.908;8.364;2022-11-15T08:56:41;2.80;;;1.83;;
66139;SDS011;52945;51.908;8.364;2022-11-15T08:59:41;2.78;;;1.63;;
66139;SDS011;52945;51.908;8.364;2022-11-15T09:02:42;4.55;;;1.88;;
66139;SDS011;52945;51.908;8.364;2022-11-15T09:05:43;3.05;;;1.90;;
66139;SDS011;52945;51.908;8.364;2022-11-15T09:08:43;4.25;;;1.88;;
66139;SDS011;52945;51.908;8.364;2022-11-15T09:11:44;3.88;;;2.10;;
66139;SDS011;52945;51.908;8.364;2022-11-15T09:14:44;2.53;;;1.70;;
66139;SDS011;52945;51.908;8.364;2022-11-15T09:17:45;2.97;;;1.40;;
66139;SDS011;52945;51.908;8.364;2022-11-15T09:20:45;4.50;;;1.83;;
66139;SDS011;52945;51.908;8.364;2022-11-15T09:23:46;2.70;;;1.73;;
66139;SDS011;52945;51.908;8.364;2022-11-15T09:26:47;3.08;;;1.33;;
66139;SDS011;52945;51.908;8.364;2022-11-15T09:29:50;2.53;;;1.33;;
66139;SDS011;52945;51.908;8.364;2022-11-15T09:32:51;3.50;;;1.58;;
66139;SDS011;52945;51.908;8.364;2022-11-15T09:35:51;2.17;;;1.63;;
66139;SDS011;52945;51.908;8.364;2022-11-15T09:38:52;3.72;;;1.90;;
66139;SDS011;52945;51.908;8.364;2022-11-15T09:45:34;4.32;;;1.30;;
66139;SDS011;52945;51.908;8.364;2022-11-15T09:48:55;1.88;;;1.20;;
66139;SDS011;52945;51.908;8.364;2022-11-15T09:51:57;2.00;;;1.17;;
66139;SDS011;52945;51.908;8.364;2022-11-15T09:54:58;2.15;;;1.20;;
66139;SDS011;52945;51.908;8.364;2022-11-15T09:58:10;1.80;;;1.30;;
66139;SDS011;52945;51.908;8.364;2022-11-15T10:04:37;1.45;;;1.00;;
66139;SDS011;52945;51.908;8.364;2022-11-15T10:11:19;2.70;;;1.33;;
66139;SDS011;52945;51.908;8.364;2022-11-15T10:14:24;1.50;;;1.20;;
66139;SDS011;52945;51.908;8.364;2022-11-15T10:20:47;1.10;;;1.00;;
66139;SDS011;52945;51.908;8.364;2022-11-15T10:23:50;1.35;;;0.90;;
66139;SDS011;52945;51.908;8.364;2022-11-15T10:26:54;1.13;;;0.80;;
66139;SDS011;52945;51.908;8.364;2022-11-15T10:29:55;1.52;;;0.98;;
66139;SDS011;52945;51.908;8.364;2022-11-15T10:32:56;2.80;;;1.08;;
66139;SDS011;52945;51.908;8.364;2022-11-15T10:39:11;2.65;;;1.00;;
66139;SDS011;52945;51.908;8.364;2022-11-15T10:48:29;3.00;;;0.90;;
66139;SDS011;52945;51.908;8.364;2022-11-15T10:51:30;2.40;;;1.00;;
66139;SDS011;52945;51.908;8.364;2022-11-15T10:54:51;1.40;;;0.98;;
66139;SDS011;52945;51.908;8.364;2022-11-15T10:58:06;2.15;;;1.10;;
66139;SDS011;52945;51.908;8.364;2022-11-15T11:01:45;1.88;;;1.08;;
66139;SDS011;52945;51.908;8.364;2022-11-15T11:04:50;2.50;;;1.10;;
66139;SDS011;52945;51.908;8.364;2022-11-15T11:07:55;2.95;;;1.10;;
66139;SDS011;52945;51.908;8.364;2022-11-15T11:11:03;1.83;;;0.93;;
66139;SDS011;52945;51.908;8.364;2022-11-15T11:14:11;1.10;;;1.00;;
66139;SDS011;52945;51.908;8.364;2022-11-15T11:17:27;1.13;;;1.00;;
66139;SDS011;52945;51.908;8.364;2022-11-15T11:20:44;1.30;;;0.90;;
66139;SDS011;52945;51.908;8.364;2022-11-15T11:23:54;1.17;;;1.02;;
66139;SDS011;52945;51.908;8.364;2022-11-15T11:30:31;1.13;;;0.95;;
66139;SDS011;52945;51.908;8.364;2022-11-15T11:34:03;1.20;;;0.98;;
66139;SDS011;52945;51.908;8.364;2022-11-15T11:51:49;4.07;;;1.15;;
66139;SDS011;52945;51.908;8.364;2022-11-15T11:55:11;1.40;;;1.30;;
66139;SDS011;52945;51.908;8.364;2022-11-15T12:01:50;1.48;;;1.10;;
66139;SDS011;52945;51.908;8.364;2022-11-15T12:11:07;1.33;;;0.82;;
66139;SDS011;52945;51.908;8.364;2022-11-15T12:14:41;1.65;;;1.10;;
66139;SDS011;52945;51.908;8.364;2022-11-15T12:17:41;1.40;;;1.30;;
66139;SDS011;52945;51.908;8.364;2022-11-15T12:20:49;1.13;;;1.00;;
66139;SDS011;52945;51.908;8.364;2022-11-15T12:24:08;1.60;;;1.05;;
66139;SDS011;52945;51.908;8.364;2022-11-15T12:27:26;1.40;;;1.30;;
66139;SDS011;52945;51.908;8.364;2022-11-15T12:30:42;1.20;;;0.98;;
66139;SDS011;52945;51.908;8.364;2022-11-15T12:33:44;1.30;;;1.13;;
66139;SDS011;52945;51.908;8.364;2022-11-15T12:36:47;1.52;;;0.90;;
66139;SDS011;52945;51.908;8.364;2022-11-15T12:52:26;2.40;;;1.17;;
66139;SDS011;52945;51.908;8.364;2022-11-15T12:55:31;1.60;;;1.20;;
66139;SDS011;52945;51.908;8.364;2022-11-15T13:04:47;1.35;;;1.08;;
66139;SDS011;52945;51.908;8.364;2022-11-15T13:10:49;1.25;;;0.95;;
66139;SDS011;52945;51.908;8.364;2022-11-15T13:13:49;2.63;;;1.20;;
66139;SDS011;52945;51.908;8.364;2022-11-15T13:16:55;1.55;;;1.10;;
66139;SDS011;52945;51.908;8.364;2022-11-15T13:23:09;1.23;;;0.90;;
66139;SDS011;52945;51.908;8.364;2022-11-15T13:26:13;1.92;;;1.30;;
66139;SDS011;52945;51.908;8.364;2022-11-15T13:29:17;5.43;;;1.17;;
66139;SDS011;52945;51.908;8.364;2022-11-15T13:32:19;4.38;;;1.20;;
66139;SDS011;52945;51.908;8.364;2022-11-15T13:35:21;2.08;;;1.10;;
66139;SDS011;52945;51.908;8.364;2022-11-15T13:38:28;0.82;;;0.82;;
66139;SDS011;52945;51.908;8.364;2022-11-15T13:41:34;1.27;;;1.08;;
66139;SDS011;52945;51.908;8.364;2022-11-15T13:44:36;1.15;;;1.10;;
66139;SDS011;52945;51.908;8.364;2022-11-15T13:50:37;2.22;;;0.90;;
66139;SDS011;52945;51.908;8.364;2022-11-15T13:53:40;0.70;;;0.70;;
66139;SDS011;52945;51.908;8.364;2022-11-15T13:56:53;1.17;;;1.05;;
66139;SDS011;52945;51.908;8.364;2022-11-15T13:59:59;2.05;;;1.00;;
66139;SDS011;52945;51.908;8.364;2022-11-15T14:03:05;1.60;;;1.00;;
66139;SDS011;52945;51.908;8.364;2022-11-15T14:15:38;1.20;;;1.00;;
66139;SDS011;52945;51.908;8.364;2022-11-15T14:18:51;3.00;;;1.00;;
66139;SDS011;52945;51.908;8.364;2022-11-15T14:22:12;1.30;;;1.10;;
66139;SDS011;52945;51.908;8.364;2022-11-15T14:25:17;1.52;;;0.80;;
66139;SDS011;52945;51.908;8.364;2022-11-15T14:34:27;2.30;;;1.10;;
66139;SDS011;52945;51.908;8.364;2022-11-15T14:40:31;4.25;;;1.13;;
66139;SDS011;52945;51.908;8.364;2022-11-15T14:46:32;1.38;;;1.08;;
66139;SDS011;52945;51.908;8.364;2022-11-15T14:49:32;0.98;;;0.93;;
66139;SDS011;52945;51.908;8.364;2022-11-15T14:55:35;2.10;;;0.90;;
66139;SDS011;52945;51.908;8.364;2022-11-15T14:58:36;2.50;;;1.10;;
66139;SDS011;52945;51.908;8.364;2022-11-15T15:04:37;2.05;;;1.20;;
66139;SDS011;52945;51.908;8.364;2022-11-15T15:10:44;3.00;;;1.02;;
66139;SDS011;52945;51.908;8.364;2022-11-15T15:13:45;1.58;;;1.27;;
66139;SDS011;52945;51.908;8.364;2022-11-15T15:19:46;1.60;;;0.93;;
66139;SDS011;52945;51.908;8.364;2022-11-15T15:22:47;1.27;;;1.10;;
66139;SDS011;52945;51.908;8.364;2022-11-15T15:25:47;1.77;;;1.17;;
66139;SDS011;52945;51.908;8.364;2022-11-15T15:28:52;3.05;;;1.10;;
66139;SDS011;52945;51.908;8.364;2022-11-15T15:31:53;1.30;;;1.10;;
66139;SDS011;52945;51.908;8.364;2022-11-15T15:37:54;1.42;;;0.93;;
66139;SDS011;52945;51.908;8.364;2022-11-15T15:43:55;1.42;;;0.82;;
66139;SDS011;52945;51.908;8.364;2022-11-15T15:46:56;2.42;;;1.20;;
66139;SDS011;52945;51.908;8.364;2022-11-15T15:49:57;2.22;;;1.35;;
66139;SDS011;52945;51.908;8.364;2022-11-15T15:52:58;1.63;;;1.30;;
66139;SDS011;52945;51.908;8.364;2022-11-15T15:56:00;2.45;;;1.52;;
66139;SDS011;52945;51.908;8.364;2022-11-15T15:59:01;3.28;;;1.30;;
66139;SDS011;52945;51.908;8.364;2022-11-15T16:02:01;3.78;;;1.55;;
66139;SDS011;52945;51.908;8.364;2022-11-15T16:05:02;1.42;;;1.20;;
66139;SDS011;52945;51.908;8.364;2022-11-15T16:11:04;2.15;;;1.52;;
66139;SDS011;52945;51.908;8.364;2022-11-15T16:14:06;2.30;;;1.60;;
66139;SDS011;52945;51.908;8.364;2022-11-15T16:17:09;1.90;;;1.45;;
66139;SDS011;52945;51.908;8.364;2022-11-15T16:20:39;2.45;;;1.60;;
66139;SDS011;52945;51.908;8.364;2022-11-15T16:23:42;3.20;;;1.50;;
66139;SDS011;52945;51.908;8.364;2022-11-15T16:26:42;3.50;;;1.83;;
66139;SDS011;52945;51.908;8.364;2022-11-15T16:29:43;2.40;;;1.70;;
66139;SDS011;52945;51.908;8.364;2022-11-15T16:32:45;3.72;;;2.13;;
66139;SDS011;52945;51.908;8.364;2022-11-15T16:35:45;2.50;;;1.50;;
66139;SDS011;52945;51.908;8.364;2022-11-15T16:38:47;3.08;;;1.80;;
66139;SDS011;52945;51.908;8.364;2022-11-15T16:41:48;3.33;;;1.80;;
66139;SDS011;52945;51.908;8.364;2022-11-15T16:44:49;3.67;;;2.00;;
66139;SDS011;52945;51.908;8.364;2022-11-15T16:47:50;4.32;;;1.70;;
66139;SDS011;52945;51.908;8.364;2022-11-15T16:50:58;5.20;;;2.10;;
66139;SDS011;52945;51.908;8.364;2022-11-15T16:53:58;2.92;;;2.00;;
66139;SDS011;52945;51.908;8.364;2022-11-15T16:56:59;3.45;;;1.77;;
66139;SDS011;52945;51.908;8.364;2022-11-15T16:59:59;2.50;;;1.83;;
66139;SDS011;52945;51.908;8.364;2022-11-15T17:03:00;2.92;;;1.83;;
66139;SDS011;52945;51.908;8.364;2022-11-15T17:06:02;3.88;;;2.17;;
66139;SDS011;52945;51.908;8.364;2022-11-15T17:09:02;2.78;;;1.98;;
66139;SDS011;52945;51.908;8.364;2022-11-15T17:12:03;3.70;;;1.85;;
66139;SDS011;52945;51.908;8.364;2022-11-15T17:15:05;2.65;;;1.70;;
66139;SDS011;52945;51.908;8.364;2022-11-15T17:18:06;2.28;;;1.75;;
66139;SDS011;52945;51.908;8.364;2022-11-15T17:21:12;3.75;;;2.28;;
66139;SDS011;52945;51.908;8.364;2022-11-15T17:24:14;2.75;;;1.83;;
66139;SDS011;52945;51.908;8.364;2022-11-15T17:27:14;2.58;;;1.60;;
66139;SDS011;52945;51.908;8.364;2022-11-15T17:30:15;2.38;;;1.40;;
66139;SDS011;52945;51.908;8.364;2022-11-15T17:33:17;2.85;;;1.75;;
66139;SDS011;52945;51.908;8.364;2022-11-15T17:36:18;2.85;;;1.85;;
66139;SDS011;52945;51.908;8.364;2022-11-15T17:39:18;4.20;;;1.60;;
66139;SDS011;52945;51.908;8.364;2022-11-15T17:42:19;2.20;;;1.70;;
66139;SDS011;52945;51.908;8.364;2022-11-15T17:45:20;3.20;;;1.70;;
66139;SDS011;52945;51.908;8.364;2022-11-15T17:48:20;2.60;;;1.52;;
66139;SDS011;52945;51.908;8.364;2022-11-15T17:51:21;3.08;;;1.65;;
66139;SDS011;52945;51.908;8.364;2022-11-15T17:54:22;5.13;;;1.95;;
66139;SDS011;52945;51.908;8.364;2022-11-15T17:57:23;4.65;;;2.00;;
66139;SDS011;52945;51.908;8.364;2022-11-15T18:00:24;2.85;;;1.55;;
66139;SDS011;52945;51.908;8.364;2022-11-15T18:03:24;3.33;;;1.60;;
66139;SDS011;52945;51.908;8.364;2022-11-15T18:06:25;4.57;;;2.03;;
66139;SDS011;52945;51.908;8.364;2022-11-15T18:09:27;2.50;;;1.60;;
66139;SDS011;52945;51.908;8.364;2022-11-15T18:12:28;4.55;;;1.88;;
66139;SDS011;52945;51.908;8.364;2022-11-15T18:15:29;4.18;;;1.65;;
66139;SDS011;52945;51.908;8.364;2022-11-15T18:18:30;3.08;;;1.73;;
66139;SDS011;52945;51.908;8.364;2022-11-15T18:21:32;2.42;;;1.30;;
66139;SDS011;52945;51.908;8.364;2022-11-15T18:24:33;3.08;;;1.73;;
66139;SDS011;52945;51.908;8.364;2022-11-15T18:27:35;2.08;;;1.60;;
66139;SDS011;52945;51.908;8.364;2022-11-15T18:30:37;2.17;;;1.52;;
66139;SDS011;52945;51.908;8.364;2022-11-15T18:33:38;3.35;;;1.83;;
66139;SDS011;52945;51.908;8.364;2022-11-15T18:36:39;4.57;;;2.00;;
66139;SDS011;52945;51.908;8.364;2022-11-15T18:39:40;3.53;;;1.60;;
66139;SDS011;52945;51.908;8.364;2022-11-15T18:42:41;2.90;;;1.88;;
66139;SDS011;52945;51.908;8.364;2022-11-15T18:45:41;2.67;;;1.70;;
66139;SDS011;52945;51.908;8.364;2022-11-15T18:48:42;3.92;;;1.77;;
66139;SDS011;52945;51.908;8.364;2022-11-15T18:51:43;2.00;;;1.60;;
66139;SDS011;52945;51.908;8.364;2022-11-15T18:54:44;2.47;;;1.77;;
66139;SDS011;52945;51.908;8.364;2022-11-15T18:57:45;3.13;;;1.75;;
66139;SDS011;52945;51.908;8.364;2022-11-15T19:00:45;4.60;;;1.75;;
66139;SDS011;52945;51.908;8.364;2022-11-15T19:03:47;4.75;;;1.80;;
66139;SDS011;52945;51.908;8.364;2022-11-15T19:06:49;2.67;;;1.63;;
66139;SDS011;52945;51.908;8.364;2022-11-15T19:09:51;3.42;;;1.52;;
66139;SDS011;52945;51.908;8.364;2022-11-15T19:12:53;3.63;;;1.80;;
66139;SDS011;52945;51.908;8.364;2022-11-15T19:16:00;2.65;;;1.55;;
66139;SDS011;52945;51.908;8.364;2022-11-15T19:19:03;3.60;;;2.05;;
66139;SDS011;52945;51.908;8.364;2022-11-15T19:22:09;4.28;;;2.08;;
66139;SDS011;52945;51.908;8.364;2022-11-15T19:25:10;1.92;;;1.65;;
66139;SDS011;52945;51.908;8.364;2022-11-15T19:28:10;4.65;;;1.90;;
66139;SDS011;52945;51.908;8.364;2022-11-15T19:34:13;5.05;;;2.00;;
66139;SDS011;52945;51.908;8.364;2022-11-15T19:37:13;2.35;;;1.75;;
66139;SDS011;52945;51.908;8.364;2022-11-15T19:40:14;3.80;;;1.90;;
66139;SDS011;52945;51.908;8.364;2022-11-15T19:43:15;3.30;;;2.13;;
66139;SDS011;52945;51.908;8.364;2022-11-15T19:46:16;3.40;;;2.17;;
66139;SDS011;52945;51.908;8.364;2022-11-15T19:49:19;3.85;;;1.95;;
66139;SDS011;52945;51.908;8.364;2022-11-15T19:52:20;2.70;;;1.90;;
66139;SDS011;52945;51.908;8.364;2022-11-15T19:55:23;3.58;;;1.90;;
66139;SDS011;52945;51.908;8.364;2022-11-15T19:58:23;3.28;;;1.88;;
66139;SDS011;52945;51.908;8.364;2022-11-15T20:01:25;1.90;;;1.42;;
66139;SDS011;52945;51.908;8.364;2022-11-15T20:04:30;2.08;;;1.42;;
66139;SDS011;52945;51.908;8.364;2022-11-15T20:07:30;3.63;;;1.80;;
66139;SDS011;52945;51.908;8.364;2022-11-15T20:10:32;3.40;;;1.73;;
66139;SDS011;52945;51.908;8.364;2022-11-15T20:13:33;3.70;;;1.60;;
66139;SDS011;52945;51.908;8.364;2022-11-15T20:16:34;4.15;;;1.80;;
66139;SDS011;52945;51.908;8.364;2022-11-15T20:19:34;3.40;;;1.75;;
66139;SDS011;52945;51.908;8.364;2022-11-15T20:22:35;4.55;;;1.70;;
66139;SDS011;52945;51.908;8.364;2022-11-15T20:25:35;3.45;;;1.80;;
66139;SDS011;52945;51.908;8.364;2022-11-15T20:28:39;3.70;;;1.50;;
66139;SDS011;52945;51.908;8.364;2022-11-15T20:31:39;4.13;;;1.90;;
66139;SDS011;52945;51.908;8.364;2022-11-15T20:34:40;2.60;;;1.73;;
66139;SDS011;52945;51.908;8.364;2022-11-15T20:37:40;2.25;;;1.33;;
66139;SDS011;52945;51.908;8.364;2022-11-15T20:40:43;3.35;;;1.50;;
66139;SDS011;52945;51.908;8.364;2022-11-15T20:43:44;1.85;;;1.48;;
66139;SDS011;52945;51.908;8.364;2022-11-15T20:46:45;3.60;;;1.75;;
66139;SDS011;52945;51.908;8.364;2022-11-15T20:49:45;2.63;;;1.80;;
66139;SDS011;52945;51.908;8.364;2022-11-15T20:52:46;3.15;;;1.67;;
66139;SDS011;52945;51.908;8.364;2022-11-15T20:55:47;2.30;;;1.50;;
66139;SDS011;52945;51.908;8.364;2022-11-15T20:58:50;2.08;;;1.20;;
66139;SDS011;52945;51.908;8.364;2022-11-15T21:04:51;2.40;;;1.58;;
66139;SDS011;52945;51.908;8.364;2022-11-15T21:07:52;2.63;;;1.52;;
66139;SDS011;52945;51.908;8.364;2022-11-15T21:10:52;3.00;;;1.50;;
66139;SDS011;52945;51.908;8.364;2022-11-15T21:14:12;2.72;;;1.20;;
66139;SDS011;52945;51.908;8.364;2022-11-15T21:17:12;1.90;;;1.30;;
66139;SDS011;52945;51.908;8.364;2022-11-15T21:20:14;1.55;;;1.30;;
66139;SDS011;52945;51.908;8.364;2022-11-15T21:23:15;2.10;;;1.40;;